ETD182 OBBI-OMAA
Flight info
| Callsign | ETD182 |
|---|---|
| Flight time | 0h 53m |
| Altitude | 25000 |
| Route | BHR DCT ASTAD N318 KAPUM Z522 ALNEV Q415 UKILI |
| Aircraft | B77W/H-SDE1E2E3FGHIJ2J3J4J5M1RWXY/LB1D1 |
Departure
| Time | 2026-05-07 16:43 |
|---|---|
| Airport | Bahrain International Airport (OBBI) |
Arrival
| Time | 2026-05-07 17:36 |
|---|---|
| Airport | Zayed International Airport (OMAA) |
| Time | Latitude | Longitude | Altitude | Speed | Heading |
|---|---|---|---|---|---|
| 2026-05-07 16:08 | 26.26937 | 50.62854 | 26 ft | 0 kts | 213° |
| 2026-05-07 16:33 | 26.26945 | 50.62860 | 31 ft | 4 kts | 213° |
| 2026-05-07 16:33 | 26.26968 | 50.62876 | 31 ft | 4 kts | 212° |
| 2026-05-07 16:33 | 26.26991 | 50.62892 | 32 ft | 3 kts | 212° |
| 2026-05-07 16:34 | 26.27011 | 50.62903 | 24 ft | 4 kts | 173° |
| 2026-05-07 16:34 | 26.27031 | 50.62890 | 26 ft | 4 kts | 126° |
| 2026-05-07 16:34 | 26.27043 | 50.62870 | 24 ft | 1 kts | 122° |
| 2026-05-07 16:34 | 26.27045 | 50.62866 | 24 ft | 0 kts | 122° |
| 2026-05-07 16:37 | 26.27044 | 50.62868 | 24 ft | 1 kts | 122° |
| 2026-05-07 16:37 | 26.27038 | 50.62878 | 24 ft | 3 kts | 122° |
| 2026-05-07 16:37 | 26.27024 | 50.62904 | 24 ft | 5 kts | 122° |
| 2026-05-07 16:38 | 26.27000 | 50.62947 | 26 ft | 8 kts | 122° |
| 2026-05-07 16:38 | 26.26964 | 50.63009 | 26 ft | 11 kts | 123° |
| 2026-05-07 16:38 | 26.26918 | 50.63090 | 29 ft | 13 kts | 116° |
| 2026-05-07 16:38 | 26.26953 | 50.63181 | 28 ft | 14 kts | 63° |
| 2026-05-07 16:39 | 26.26921 | 50.63284 | 29 ft | 15 kts | 123° |
| 2026-05-07 16:39 | 26.26861 | 50.63387 | 27 ft | 17 kts | 123° |
| 2026-05-07 16:39 | 26.26798 | 50.63497 | 28 ft | 18 kts | 122° |
| 2026-05-07 16:39 | 26.26730 | 50.63615 | 28 ft | 18 kts | 122° |
| 2026-05-07 16:40 | 26.26662 | 50.63733 | 30 ft | 18 kts | 122° |
| 2026-05-07 16:40 | 26.26594 | 50.63854 | 31 ft | 18 kts | 122° |
| 2026-05-07 16:40 | 26.26526 | 50.63971 | 26 ft | 18 kts | 122° |
| 2026-05-07 16:40 | 26.26455 | 50.64096 | 29 ft | 20 kts | 123° |
| 2026-05-07 16:41 | 26.26377 | 50.64230 | 30 ft | 20 kts | 123° |
| 2026-05-07 16:41 | 26.26301 | 50.64362 | 28 ft | 21 kts | 122° |
| 2026-05-07 16:41 | 26.26220 | 50.64502 | 28 ft | 22 kts | 122° |
| 2026-05-07 16:41 | 26.26140 | 50.64642 | 27 ft | 22 kts | 122° |
| 2026-05-07 16:42 | 26.26060 | 50.64781 | 28 ft | 22 kts | 122° |
| 2026-05-07 16:42 | 26.26021 | 50.64918 | 28 ft | 15 kts | 72° |
| 2026-05-07 16:42 | 26.26100 | 50.64995 | 27 ft | 16 kts | 21° |
| 2026-05-07 16:42 | 26.26167 | 50.64949 | 25 ft | 12 kts | 304° |
| 2026-05-07 16:43 | 26.26178 | 50.64929 | 23 ft | 0 kts | 302° |
| 2026-05-07 16:43 | 26.26246 | 50.64812 | 22 ft | 67 kts | 303° |
| 2026-05-07 16:43 | 26.26742 | 50.63967 | 37 ft | 194 kts | 303° |
| 2026-05-07 16:43 | 26.27537 | 50.62596 | 1278 ft | 210 kts | 304° |
| 2026-05-07 16:44 | 26.28391 | 50.61344 | 2991 ft | 210 kts | 319° |
| 2026-05-07 16:44 | 26.29705 | 50.60500 | 3558 ft | 235 kts | 342° |
| 2026-05-07 16:44 | 26.31352 | 50.60004 | 4123 ft | 257 kts | 347° |
| 2026-05-07 16:44 | 26.33078 | 50.59566 | 5154 ft | 263 kts | 347° |
| 2026-05-07 16:45 | 26.34876 | 50.59166 | 6021 ft | 272 kts | 355° |
| 2026-05-07 16:45 | 26.36762 | 50.59548 | 6850 ft | 284 kts | 28° |
| 2026-05-07 16:45 | 26.38130 | 50.60960 | 7815 ft | 288 kts | 60° |
| 2026-05-07 16:45 | 26.38686 | 50.63089 | 8943 ft | 287 kts | 91° |
| 2026-05-07 16:46 | 26.38386 | 50.65262 | 10022 ft | 287 kts | 105° |
| 2026-05-07 16:46 | 26.37843 | 50.67422 | 10898 ft | 300 kts | 108° |
| 2026-05-07 16:46 | 26.37204 | 50.69742 | 11282 ft | 331 kts | 108° |
| 2026-05-07 16:46 | 26.36478 | 50.72317 | 11534 ft | 364 kts | 108° |
| 2026-05-07 16:47 | 26.35698 | 50.75080 | 12036 ft | 384 kts | 108° |
| 2026-05-07 16:47 | 26.34895 | 50.77956 | 12980 ft | 391 kts | 108° |
| 2026-05-07 16:47 | 26.34086 | 50.80872 | 14003 ft | 396 kts | 108° |
| 2026-05-07 16:47 | 26.33277 | 50.83803 | 14921 ft | 401 kts | 109° |
| 2026-05-07 16:48 | 26.32451 | 50.86805 | 15798 ft | 408 kts | 108° |
| 2026-05-07 16:48 | 26.31617 | 50.89826 | 16692 ft | 414 kts | 109° |
| 2026-05-07 16:48 | 26.30875 | 50.92498 | 17482 ft | 418 kts | 110° |
| 2026-05-07 16:48 | 26.29780 | 50.95691 | 18379 ft | 423 kts | 116° |
| 2026-05-07 16:49 | 26.28575 | 50.98291 | 19023 ft | 428 kts | 121° |
| 2026-05-07 16:49 | 26.27101 | 51.01196 | 19733 ft | 435 kts | 121° |
| 2026-05-07 16:49 | 26.25584 | 51.04159 | 20443 ft | 443 kts | 121° |
| 2026-05-07 16:49 | 26.24075 | 51.07137 | 21146 ft | 449 kts | 121° |
| 2026-05-07 16:50 | 26.22515 | 51.10233 | 21876 ft | 456 kts | 120° |
| 2026-05-07 16:50 | 26.20961 | 51.13320 | 22633 ft | 460 kts | 120° |
| 2026-05-07 16:50 | 26.19568 | 51.16089 | 23302 ft | 464 kts | 120° |
| 2026-05-07 16:50 | 26.17993 | 51.19218 | 23954 ft | 468 kts | 120° |
| 2026-05-07 16:51 | 26.16436 | 51.22308 | 24589 ft | 471 kts | 121° |
| 2026-05-07 16:51 | 26.14837 | 51.25478 | 24866 ft | 470 kts | 121° |
| 2026-05-07 16:51 | 26.13282 | 51.28563 | 24847 ft | 453 kts | 121° |
| 2026-05-07 16:51 | 26.11773 | 51.31554 | 24838 ft | 438 kts | 121° |
| 2026-05-07 16:52 | 26.10286 | 51.34496 | 24843 ft | 433 kts | 121° |
| 2026-05-07 16:52 | 26.08814 | 51.37404 | 24848 ft | 432 kts | 121° |
| 2026-05-07 16:52 | 26.07336 | 51.40322 | 24839 ft | 432 kts | 121° |
| 2026-05-07 16:52 | 26.05854 | 51.43243 | 24845 ft | 432 kts | 121° |
| 2026-05-07 16:53 | 26.04377 | 51.46149 | 24854 ft | 432 kts | 121° |
| 2026-05-07 16:53 | 26.03035 | 51.48788 | 24855 ft | 432 kts | 121° |
| 2026-05-07 16:53 | 26.01555 | 51.51697 | 24848 ft | 432 kts | 121° |
| 2026-05-07 16:53 | 26.00070 | 51.54615 | 24848 ft | 432 kts | 121° |
| 2026-05-07 16:54 | 25.98591 | 51.57522 | 24853 ft | 433 kts | 122° |
| 2026-05-07 16:54 | 25.97108 | 51.60434 | 24864 ft | 432 kts | 122° |
| 2026-05-07 16:54 | 25.95627 | 51.63341 | 24844 ft | 432 kts | 122° |
| 2026-05-07 16:54 | 25.94144 | 51.66249 | 24839 ft | 432 kts | 122° |
| 2026-05-07 16:55 | 25.92684 | 51.69112 | 24839 ft | 432 kts | 122° |
| 2026-05-07 16:55 | 25.91265 | 51.71891 | 24839 ft | 431 kts | 122° |
| 2026-05-07 16:55 | 25.89798 | 51.74798 | 24852 ft | 431 kts | 121° |
| 2026-05-07 16:55 | 25.88370 | 51.77739 | 24836 ft | 432 kts | 120° |
| 2026-05-07 16:56 | 25.86959 | 51.80680 | 24854 ft | 432 kts | 120° |
| 2026-05-07 16:56 | 25.85544 | 51.83612 | 24837 ft | 431 kts | 120° |
| 2026-05-07 16:56 | 25.82776 | 51.89523 | 24850 ft | 432 kts | 117° |
| 2026-05-07 16:57 | 25.81928 | 51.91515 | 24851 ft | 432 kts | 117° |
| 2026-05-07 16:57 | 25.80694 | 51.94471 | 24836 ft | 432 kts | 117° |
| 2026-05-07 16:57 | 25.79450 | 51.97473 | 24851 ft | 432 kts | 117° |
| 2026-05-07 16:57 | 25.78320 | 52.00192 | 24850 ft | 431 kts | 116° |
| 2026-05-07 16:58 | 25.77098 | 52.03122 | 24832 ft | 431 kts | 117° |
| 2026-05-07 16:58 | 25.75841 | 52.06121 | 24847 ft | 431 kts | 117° |
| 2026-05-07 16:58 | 25.74575 | 52.09131 | 24848 ft | 430 kts | 117° |
| 2026-05-07 16:58 | 25.73307 | 52.12138 | 24833 ft | 430 kts | 117° |
| 2026-05-07 16:59 | 25.72033 | 52.15156 | 24849 ft | 430 kts | 117° |
| 2026-05-07 16:59 | 25.70771 | 52.18142 | 24833 ft | 430 kts | 117° |
| 2026-05-07 16:59 | 25.69512 | 52.21121 | 24849 ft | 429 kts | 117° |
| 2026-05-07 16:59 | 25.68239 | 52.24132 | 24847 ft | 429 kts | 117° |
| 2026-05-07 17:00 | 25.66967 | 52.27139 | 24847 ft | 429 kts | 117° |
| 2026-05-07 17:00 | 25.65697 | 52.30140 | 24845 ft | 429 kts | 117° |
| 2026-05-07 17:00 | 25.64428 | 52.33137 | 24844 ft | 429 kts | 117° |
| 2026-05-07 17:00 | 25.63161 | 52.36124 | 24843 ft | 429 kts | 117° |
| 2026-05-07 17:01 | 25.61886 | 52.39106 | 24843 ft | 429 kts | 118° |
| 2026-05-07 17:01 | 25.60485 | 52.42016 | 24845 ft | 428 kts | 121° |
| 2026-05-07 17:01 | 25.59021 | 52.44909 | 24847 ft | 428 kts | 121° |
| 2026-05-07 17:01 | 25.57563 | 52.47755 | 24844 ft | 428 kts | 121° |
| 2026-05-07 17:02 | 25.56091 | 52.50629 | 24842 ft | 428 kts | 121° |
| 2026-05-07 17:02 | 25.54650 | 52.53457 | 24842 ft | 428 kts | 121° |
| 2026-05-07 17:02 | 25.53205 | 52.56303 | 24842 ft | 428 kts | 121° |
| 2026-05-07 17:02 | 25.51746 | 52.59182 | 24841 ft | 428 kts | 121° |
| 2026-05-07 17:03 | 25.50301 | 52.62037 | 24841 ft | 428 kts | 121° |
| 2026-05-07 17:03 | 25.48844 | 52.64915 | 24838 ft | 428 kts | 121° |
| 2026-05-07 17:03 | 25.47388 | 52.67789 | 24838 ft | 428 kts | 121° |
| 2026-05-07 17:03 | 25.45934 | 52.70655 | 24838 ft | 427 kts | 121° |
| 2026-05-07 17:04 | 25.44486 | 52.73484 | 24838 ft | 427 kts | 122° |
| 2026-05-07 17:04 | 25.43066 | 52.76085 | 24837 ft | 426 kts | 123° |
| 2026-05-07 17:04 | 25.41519 | 52.78857 | 24830 ft | 426 kts | 123° |
| 2026-05-07 17:04 | 25.39975 | 52.81618 | 24832 ft | 426 kts | 123° |
| 2026-05-07 17:05 | 25.38430 | 52.84389 | 24834 ft | 426 kts | 123° |
| 2026-05-07 17:05 | 25.36911 | 52.87122 | 24837 ft | 427 kts | 123° |
| 2026-05-07 17:05 | 25.35359 | 52.89916 | 24837 ft | 427 kts | 123° |
| 2026-05-07 17:05 | 25.33804 | 52.92714 | 24836 ft | 427 kts | 123° |
| 2026-05-07 17:06 | 25.32248 | 52.95520 | 24832 ft | 427 kts | 122° |
| 2026-05-07 17:06 | 25.30874 | 52.98357 | 24831 ft | 429 kts | 116° |
| 2026-05-07 17:06 | 25.29743 | 53.01113 | 24833 ft | 429 kts | 115° |
| 2026-05-07 17:06 | 25.28533 | 53.04137 | 24833 ft | 429 kts | 115° |
| 2026-05-07 17:07 | 25.27333 | 53.07138 | 24833 ft | 430 kts | 115° |
| 2026-05-07 17:07 | 25.26098 | 53.10205 | 24832 ft | 430 kts | 115° |
| 2026-05-07 17:07 | 25.24870 | 53.13230 | 24831 ft | 431 kts | 116° |
| 2026-05-07 17:07 | 25.23639 | 53.16246 | 24830 ft | 431 kts | 116° |
| 2026-05-07 17:08 | 25.22406 | 53.19260 | 24831 ft | 431 kts | 116° |
| 2026-05-07 17:08 | 25.21165 | 53.22289 | 24830 ft | 431 kts | 116° |
| 2026-05-07 17:08 | 25.19930 | 53.25302 | 24824 ft | 431 kts | 116° |
| 2026-05-07 17:08 | 25.18667 | 53.28308 | 24823 ft | 430 kts | 119° |
| 2026-05-07 17:09 | 25.17194 | 53.31117 | 24830 ft | 429 kts | 124° |
| 2026-05-07 17:09 | 25.15442 | 53.33780 | 24829 ft | 427 kts | 131° |
| 2026-05-07 17:09 | 25.13513 | 53.36341 | 24832 ft | 427 kts | 132° |
| 2026-05-07 17:09 | 25.11633 | 53.38802 | 24831 ft | 427 kts | 132° |
| 2026-05-07 17:10 | 25.09713 | 53.41322 | 24829 ft | 427 kts | 132° |
| 2026-05-07 17:10 | 25.07842 | 53.43796 | 24830 ft | 427 kts | 131° |
| 2026-05-07 17:10 | 25.05932 | 53.46335 | 24831 ft | 427 kts | 131° |
| 2026-05-07 17:10 | 25.04096 | 53.48783 | 24831 ft | 427 kts | 131° |
| 2026-05-07 17:11 | 25.02222 | 53.51280 | 24844 ft | 440 kts | 131° |
| 2026-05-07 17:11 | 25.00320 | 53.53809 | 24843 ft | 457 kts | 131° |
| 2026-05-07 17:11 | 24.98213 | 53.56289 | 24828 ft | 460 kts | 139° |
| 2026-05-07 17:11 | 24.95713 | 53.58512 | 24830 ft | 459 kts | 147° |
| 2026-05-07 17:12 | 24.93033 | 53.60366 | 24823 ft | 457 kts | 154° |
| 2026-05-07 17:12 | 24.90249 | 53.61842 | 24805 ft | 452 kts | 157° |
| 2026-05-07 17:12 | 24.87403 | 53.63280 | 24556 ft | 444 kts | 157° |
| 2026-05-07 17:12 | 24.84688 | 53.64675 | 24066 ft | 440 kts | 156° |
| 2026-05-07 17:13 | 24.81942 | 53.66117 | 23451 ft | 438 kts | 156° |
| 2026-05-07 17:13 | 24.79268 | 53.67671 | 22626 ft | 437 kts | 148° |
| 2026-05-07 17:13 | 24.77024 | 53.69661 | 22001 ft | 436 kts | 137° |
| 2026-05-07 17:13 | 24.75039 | 53.72141 | 21465 ft | 431 kts | 127° |
| 2026-05-07 17:14 | 24.73503 | 53.74907 | 20928 ft | 426 kts | 120° |
| 2026-05-07 17:14 | 24.72119 | 53.77729 | 20395 ft | 421 kts | 119° |
| 2026-05-07 17:14 | 24.70779 | 53.80477 | 19609 ft | 398 kts | 120° |
| 2026-05-07 17:14 | 24.69502 | 53.83057 | 19182 ft | 368 kts | 120° |
| 2026-05-07 17:15 | 24.68310 | 53.85432 | 18784 ft | 343 kts | 120° |
| 2026-05-07 17:15 | 24.67179 | 53.87663 | 18225 ft | 327 kts | 120° |
| 2026-05-07 17:15 | 24.66086 | 53.89812 | 17445 ft | 318 kts | 120° |
| 2026-05-07 17:15 | 24.65007 | 53.91929 | 16516 ft | 315 kts | 121° |
| 2026-05-07 17:16 | 24.63975 | 53.94042 | 15538 ft | 315 kts | 114° |
| 2026-05-07 17:16 | 24.63469 | 53.96413 | 15172 ft | 318 kts | 98° |
| 2026-05-07 17:16 | 24.63233 | 53.98592 | 15037 ft | 323 kts | 98° |
| 2026-05-07 17:16 | 24.63001 | 54.00838 | 14865 ft | 320 kts | 98° |
| 2026-05-07 17:17 | 24.62751 | 54.03242 | 14805 ft | 312 kts | 98° |
| 2026-05-07 17:17 | 24.62498 | 54.05601 | 14807 ft | 311 kts | 98° |
| 2026-05-07 17:17 | 24.62240 | 54.07950 | 14800 ft | 314 kts | 98° |
| 2026-05-07 17:17 | 24.61973 | 54.10344 | 14802 ft | 316 kts | 98° |
| 2026-05-07 17:18 | 24.61702 | 54.12747 | 14802 ft | 318 kts | 98° |
| 2026-05-07 17:18 | 24.61427 | 54.15165 | 14800 ft | 318 kts | 98° |
| 2026-05-07 17:18 | 24.61160 | 54.17509 | 14740 ft | 315 kts | 99° |
| 2026-05-07 17:18 | 24.60889 | 54.19886 | 14439 ft | 307 kts | 99° |
| 2026-05-07 17:19 | 24.60626 | 54.22184 | 13684 ft | 303 kts | 98° |
| 2026-05-07 17:19 | 24.60366 | 54.24453 | 12781 ft | 302 kts | 99° |
| 2026-05-07 17:19 | 24.60107 | 54.26707 | 12499 ft | 295 kts | 98° |
| 2026-05-07 17:19 | 24.59844 | 54.28979 | 12323 ft | 305 kts | 98° |
| 2026-05-07 17:20 | 24.59578 | 54.31283 | 12165 ft | 311 kts | 98° |
| 2026-05-07 17:20 | 24.59296 | 54.33628 | 11978 ft | 310 kts | 101° |
| 2026-05-07 17:20 | 24.58871 | 54.35935 | 11797 ft | 307 kts | 104° |
| 2026-05-07 17:20 | 24.58379 | 54.38211 | 11617 ft | 305 kts | 104° |
| 2026-05-07 17:21 | 24.57903 | 54.40437 | 11453 ft | 304 kts | 104° |
| 2026-05-07 17:21 | 24.57436 | 54.42680 | 11260 ft | 302 kts | 104° |
| 2026-05-07 17:21 | 24.56974 | 54.44931 | 11116 ft | 300 kts | 103° |
| 2026-05-07 17:21 | 24.56526 | 54.47130 | 11044 ft | 299 kts | 104° |
| 2026-05-07 17:22 | 24.56070 | 54.49395 | 10787 ft | 304 kts | 103° |
| 2026-05-07 17:22 | 24.55621 | 54.51636 | 10582 ft | 303 kts | 104° |
| 2026-05-07 17:22 | 24.55168 | 54.53890 | 10405 ft | 301 kts | 103° |
| 2026-05-07 17:22 | 24.54721 | 54.56113 | 10232 ft | 299 kts | 103° |
| 2026-05-07 17:23 | 24.54275 | 54.58334 | 10036 ft | 294 kts | 103° |
| 2026-05-07 17:23 | 24.53848 | 54.60454 | 9875 ft | 289 kts | 103° |
| 2026-05-07 17:23 | 24.53422 | 54.62572 | 9705 ft | 285 kts | 104° |
| 2026-05-07 17:23 | 24.52995 | 54.64688 | 9534 ft | 283 kts | 104° |
| 2026-05-07 17:24 | 24.52575 | 54.66767 | 9359 ft | 281 kts | 104° |
| 2026-05-07 17:24 | 24.52153 | 54.68856 | 9197 ft | 279 kts | 104° |
| 2026-05-07 17:24 | 24.51732 | 54.70878 | 9021 ft | 275 kts | 107° |
| 2026-05-07 17:24 | 24.50861 | 54.72729 | 8871 ft | 277 kts | 129° |
| 2026-05-07 17:25 | 24.49654 | 54.74360 | 8722 ft | 282 kts | 129° |
| 2026-05-07 17:25 | 24.48423 | 54.76050 | 8529 ft | 283 kts | 130° |
| 2026-05-07 17:25 | 24.47210 | 54.77737 | 8319 ft | 280 kts | 129° |
| 2026-05-07 17:25 | 24.46049 | 54.79366 | 7714 ft | 273 kts | 129° |
| 2026-05-07 17:26 | 24.44933 | 54.80932 | 6987 ft | 273 kts | 128° |
| 2026-05-07 17:26 | 24.43781 | 54.82549 | 6277 ft | 272 kts | 128° |
| 2026-05-07 17:26 | 24.42638 | 54.84155 | 5600 ft | 270 kts | 128° |
| 2026-05-07 17:26 | 24.41473 | 54.85792 | 5317 ft | 274 kts | 128° |
| 2026-05-07 17:27 | 24.40287 | 54.87457 | 5182 ft | 279 kts | 128° |
| 2026-05-07 17:27 | 24.39113 | 54.89105 | 5028 ft | 276 kts | 128° |
| 2026-05-07 17:27 | 24.37952 | 54.90734 | 4991 ft | 266 kts | 128° |
| 2026-05-07 17:27 | 24.36819 | 54.92323 | 4996 ft | 264 kts | 128° |
| 2026-05-07 17:28 | 24.35705 | 54.93884 | 5014 ft | 270 kts | 129° |
| 2026-05-07 17:28 | 24.34569 | 54.95428 | 4986 ft | 262 kts | 136° |
| 2026-05-07 17:28 | 24.33103 | 54.96415 | 4994 ft | 244 kts | 167° |
| 2026-05-07 17:28 | 24.31446 | 54.96432 | 5025 ft | 239 kts | 198° |
| 2026-05-07 17:29 | 24.30040 | 54.95625 | 5027 ft | 226 kts | 216° |
| 2026-05-07 17:29 | 24.28865 | 54.94656 | 4991 ft | 220 kts | 218° |
| 2026-05-07 17:29 | 24.28070 | 54.93974 | 4991 ft | 218 kts | 219° |
| 2026-05-07 17:29 | 24.26989 | 54.92849 | 4818 ft | 214 kts | 238° |
| 2026-05-07 17:30 | 24.26560 | 54.91304 | 4390 ft | 212 kts | 266° |
| 2026-05-07 17:30 | 24.26597 | 54.89701 | 3917 ft | 213 kts | 279° |
| 2026-05-07 17:30 | 24.27168 | 54.88241 | 3470 ft | 214 kts | 300° |
| 2026-05-07 17:30 | 24.27962 | 54.86888 | 3119 ft | 213 kts | 303° |
| 2026-05-07 17:31 | 24.28836 | 54.85568 | 3011 ft | 216 kts | 306° |
| 2026-05-07 17:31 | 24.29741 | 54.84276 | 3009 ft | 211 kts | 307° |
| 2026-05-07 17:31 | 24.30612 | 54.83045 | 3001 ft | 199 kts | 307° |
| 2026-05-07 17:31 | 24.31440 | 54.81878 | 2998 ft | 193 kts | 307° |
| 2026-05-07 17:32 | 24.32255 | 54.80729 | 2986 ft | 191 kts | 307° |
| 2026-05-07 17:32 | 24.33024 | 54.79644 | 2804 ft | 197 kts | 307° |
| 2026-05-07 17:32 | 24.33864 | 54.78461 | 2576 ft | 192 kts | 306° |
| 2026-05-07 17:32 | 24.34630 | 54.77377 | 2328 ft | 171 kts | 306° |
| 2026-05-07 17:33 | 24.35306 | 54.76428 | 2122 ft | 147 kts | 307° |
| 2026-05-07 17:33 | 24.35858 | 54.75648 | 1971 ft | 140 kts | 306° |
| 2026-05-07 17:33 | 24.36451 | 54.74804 | 1775 ft | 139 kts | 308° |
| 2026-05-07 17:33 | 24.37024 | 54.73999 | 1632 ft | 140 kts | 307° |
| 2026-05-07 17:34 | 24.37604 | 54.73179 | 1463 ft | 140 kts | 308° |
| 2026-05-07 17:34 | 24.38180 | 54.72366 | 1315 ft | 137 kts | 309° |
| 2026-05-07 17:34 | 24.38754 | 54.71555 | 1123 ft | 136 kts | 309° |
| 2026-05-07 17:34 | 24.39338 | 54.70731 | 955 ft | 135 kts | 309° |
| 2026-05-07 17:35 | 24.39911 | 54.69926 | 809 ft | 135 kts | 310° |
| 2026-05-07 17:35 | 24.40485 | 54.69111 | 663 ft | 137 kts | 308° |
| 2026-05-07 17:35 | 24.41057 | 54.68290 | 483 ft | 137 kts | 309° |
| 2026-05-07 17:35 | 24.41643 | 54.67465 | 311 ft | 139 kts | 311° |
| 2026-05-07 17:36 | 24.42231 | 54.66642 | 104 ft | 138 kts | 310° |
| 2026-05-07 17:36 | 24.42762 | 54.65908 | 86 ft | 117 kts | 307° |
| 2026-05-07 17:36 | 24.43147 | 54.65344 | 88 ft | 82 kts | 308° |
| 2026-05-07 17:36 | 24.43423 | 54.64959 | 87 ft | 47 kts | 308° |
| 2026-05-07 17:37 | 24.43580 | 54.64738 | 85 ft | 30 kts | 307° |
| 2026-05-07 17:37 | 24.43697 | 54.64573 | 85 ft | 26 kts | 314° |
| 2026-05-07 17:37 | 24.43844 | 54.64463 | 88 ft | 26 kts | 333° |
| 2026-05-07 17:37 | 24.43949 | 54.64417 | 85 ft | 9 kts | 339° |
| 2026-05-07 17:38 | 24.43995 | 54.64397 | 86 ft | 7 kts | 339° |
| 2026-05-07 17:38 | 24.44043 | 54.64373 | 87 ft | 8 kts | 327° |
| 2026-05-07 17:38 | 24.44086 | 54.64327 | 87 ft | 9 kts | 321° |
| 2026-05-07 17:38 | 24.44133 | 54.64321 | 86 ft | 3 kts | 21° |
| 2026-05-07 17:39 | 24.44144 | 54.64325 | 86 ft | 1 kts | 21° |
| 2026-05-07 17:39 | 24.44159 | 54.64332 | 81 ft | 3 kts | 25° |
| 2026-05-07 17:39 | 24.44183 | 54.64347 | 82 ft | 0 kts | 37° |
| 2026-05-07 17:39 | 24.44192 | 54.64355 | 83 ft | 4 kts | 40° |
| 2026-05-07 17:40 | 24.44220 | 54.64381 | 85 ft | 7 kts | 40° |
| 2026-05-07 17:40 | 24.44268 | 54.64416 | 84 ft | 9 kts | 11° |
| 2026-05-07 17:40 | 24.44324 | 54.64375 | 86 ft | 11 kts | 312° |
| 2026-05-07 17:40 | 24.44376 | 54.64305 | 85 ft | 14 kts | 309° |
| 2026-05-07 17:41 | 24.44461 | 54.64241 | 85 ft | 16 kts | 336° |
| 2026-05-07 17:41 | 24.44553 | 54.64198 | 85 ft | 9 kts | 341° |
| 2026-05-07 17:41 | 24.44587 | 54.64186 | 86 ft | 2 kts | 341° |
| 2026-05-07 17:41 | 24.44607 | 54.64180 | 85 ft | 4 kts | 350° |
| 2026-05-07 17:42 | 24.44634 | 54.64199 | 84 ft | 6 kts | 52° |
| 2026-05-07 17:42 | 24.44652 | 54.64238 | 82 ft | 0 kts | 68° |
| 2026-05-07 17:42 | 24.44656 | 54.64250 | 83 ft | 3 kts | 69° |
| 2026-05-07 17:42 | 24.44659 | 54.64260 | 85 ft | 1 kts | 70° |
| 2026-05-07 17:43 | 24.44661 | 54.64266 | 85 ft | 1 kts | 70° |
| 2026-05-07 17:43 | 24.44662 | 54.64270 | 85 ft | 0 kts | 70° |